sensor_id;sensor_type;location;lat;lon;timestamp;pressure;altitude;pressure_sealevel;temperature;humidity
70833;BME280;58452;59.418;17.962;2023-02-28T00:00:44;102467.84;;;1.04;78.64
70833;BME280;58452;59.418;17.962;2023-02-28T00:03:09;102472.13;;;1.02;78.77
70833;BME280;58452;59.418;17.962;2023-02-28T00:05:35;102471.88;;;1.11;78.87
70833;BME280;58452;59.418;17.962;2023-02-28T00:08:00;102473.41;;;1.18;78.67
70833;BME280;58452;59.418;17.962;2023-02-28T00:10:28;102467.16;;;1.29;77.93
70833;BME280;58452;59.418;17.962;2023-02-28T00:12:56;102469.78;;;1.28;77.89
70833;BME280;58452;59.418;17.962;2023-02-28T00:15:24;102475.63;;;1.30;77.68
70833;BME280;58452;59.418;17.962;2023-02-28T00:17:49;102479.31;;;1.20;77.84
70833;BME280;58452;59.418;17.962;2023-02-28T00:20:15;102478.81;;;1.06;78.76
70833;BME280;58452;59.418;17.962;2023-02-28T00:22:43;102476.72;;;0.87;79.33
70833;BME280;58452;59.418;17.962;2023-02-28T00:25:10;102480.78;;;0.94;79.77
70833;BME280;58452;59.418;17.962;2023-02-28T00:27:37;102475.69;;;0.94;79.76
70833;BME280;58452;59.418;17.962;2023-02-28T00:30:04;102480.53;;;1.04;79.19
70833;BME280;58452;59.418;17.962;2023-02-28T00:32:30;102477.22;;;1.02;79.02
70833;BME280;58452;59.418;17.962;2023-02-28T00:34:55;102483.16;;;1.02;79.16
70833;BME280;58452;59.418;17.962;2023-02-28T00:37:21;102477.25;;;1.00;78.89
70833;BME280;58452;59.418;17.962;2023-02-28T00:39:46;102470.47;;;1.01;79.28
70833;BME280;58452;59.418;17.962;2023-02-28T00:42:12;102468.72;;;1.03;79.46
70833;BME280;58452;59.418;17.962;2023-02-28T00:44:37;102470.63;;;0.94;79.49
70833;BME280;58452;59.418;17.962;2023-02-28T00:47:03;102474.75;;;0.98;79.22
70833;BME280;58452;59.418;17.962;2023-02-28T00:49:28;102472.81;;;1.08;79.24
70833;BME280;58452;59.418;17.962;2023-02-28T00:51:54;102472.38;;;1.25;78.46
70833;BME280;58452;59.418;17.962;2023-02-28T00:54:21;102465.06;;;1.13;78.16
70833;BME280;58452;59.418;17.962;2023-02-28T00:56:48;102469.81;;;1.25;77.67
70833;BME280;58452;59.418;17.962;2023-02-28T00:59:14;102466.41;;;1.26;77.60
70833;BME280;58452;59.418;17.962;2023-02-28T01:01:40;102451.34;;;1.18;77.29
70833;BME280;58452;59.418;17.962;2023-02-28T01:04:06;102454.06;;;1.12;77.60
70833;BME280;58452;59.418;17.962;2023-02-28T01:06:31;102447.75;;;1.27;77.78
70833;BME280;58452;59.418;17.962;2023-02-28T01:08:57;102450.19;;;1.30;77.72
70833;BME280;58452;59.418;17.962;2023-02-28T01:11:23;102459.75;;;1.22;76.94
70833;BME280;58452;59.418;17.962;2023-02-28T01:13:49;102461.81;;;1.40;76.52
70833;BME280;58452;59.418;17.962;2023-02-28T01:16:14;102466.84;;;1.41;76.69
70833;BME280;58452;59.418;17.962;2023-02-28T01:18:40;102465.69;;;1.53;76.05
70833;BME280;58452;59.418;17.962;2023-02-28T01:21:11;102458.75;;;1.58;75.79
70833;BME280;58452;59.418;17.962;2023-02-28T01:23:38;102473.47;;;1.47;74.82
70833;BME280;58452;59.418;17.962;2023-02-28T01:26:08;102460.16;;;1.39;74.63
70833;BME280;58452;59.418;17.962;2023-02-28T01:28:34;102463.53;;;0.72;76.78
70833;BME280;58452;59.418;17.962;2023-02-28T01:31:00;102463.19;;;0.87;77.11
70833;BME280;58452;59.418;17.962;2023-02-28T01:33:25;102453.59;;;0.96;76.19
70833;BME280;58452;59.418;17.962;2023-02-28T01:36:09;102461.66;;;1.14;76.38
70833;BME280;58452;59.418;17.962;2023-02-28T01:38:34;102471.75;;;1.17;75.78
70833;BME280;58452;59.418;17.962;2023-02-28T01:41:00;102472.66;;;1.14;75.32
70833;BME280;58452;59.418;17.962;2023-02-28T01:43:29;102476.75;;;1.20;75.12
70833;BME280;58452;59.418;17.962;2023-02-28T01:45:56;102474.91;;;1.25;75.36
70833;BME280;58452;59.418;17.962;2023-02-28T01:48:26;102467.69;;;1.10;75.33
70833;BME280;58452;59.418;17.962;2023-02-28T01:50:53;102479.38;;;1.17;75.03
70833;BME280;58452;59.418;17.962;2023-02-28T01:53:25;102473.94;;;0.96;75.31
70833;BME280;58452;59.418;17.962;2023-02-28T01:55:53;102482.59;;;0.89;75.24
70833;BME280;58452;59.418;17.962;2023-02-28T01:58:20;102475.69;;;0.94;75.02
70833;BME280;58452;59.418;17.962;2023-02-28T02:00:46;102468.28;;;0.50;76.75
70833;BME280;58452;59.418;17.962;2023-02-28T02:03:14;102475.16;;;0.45;77.09
70833;BME280;58452;59.418;17.962;2023-02-28T02:05:44;102471.25;;;0.32;79.01
70833;BME280;58452;59.418;17.962;2023-02-28T02:08:16;102456.22;;;-0.17;82.38
70833;BME280;58452;59.418;17.962;2023-02-28T02:10:45;102454.13;;;0.02;81.86
70833;BME280;58452;59.418;17.962;2023-02-28T02:24:10;102457.88;;;0.24;80.16
70833;BME280;58452;59.418;17.962;2023-02-28T02:37:33;102456.03;;;0.67;80.17
70833;BME280;58452;59.418;17.962;2023-02-28T02:40:12;102455.91;;;0.73;79.50
70833;BME280;58452;59.418;17.962;2023-02-28T02:42:46;102458.22;;;0.81;79.34
70833;BME280;58452;59.418;17.962;2023-02-28T02:45:34;102464.09;;;0.84;78.85
70833;BME280;58452;59.418;17.962;2023-02-28T02:48:06;102460.81;;;0.79;78.56
70833;BME280;58452;59.418;17.962;2023-02-28T02:50:59;102456.19;;;0.61;77.99
70833;BME280;58452;59.418;17.962;2023-02-28T02:53:39;102454.25;;;0.35;79.23
70833;BME280;58452;59.418;17.962;2023-02-28T02:56:06;102468.16;;;0.56;78.83
70833;BME280;58452;59.418;17.962;2023-02-28T02:58:36;102462.44;;;0.46;78.66
70833;BME280;58452;59.418;17.962;2023-02-28T03:01:08;102467.94;;;0.28;78.88
70833;BME280;58452;59.418;17.962;2023-02-28T03:03:35;102463.69;;;0.29;78.97
70833;BME280;58452;59.418;17.962;2023-02-28T03:06:01;102470.97;;;0.06;79.13
70833;BME280;58452;59.418;17.962;2023-02-28T03:08:30;102465.44;;;-0.56;82.75
70833;BME280;58452;59.418;17.962;2023-02-28T03:11:03;102462.03;;;-0.55;84.27
70833;BME280;58452;59.418;17.962;2023-02-28T03:13:34;102463.03;;;-0.64;84.24
70833;BME280;58452;59.418;17.962;2023-02-28T03:19:00;102452.78;;;-0.58;83.84
70833;BME280;58452;59.418;17.962;2023-02-28T03:21:31;102457.06;;;-0.61;84.60
70833;BME280;58452;59.418;17.962;2023-02-28T03:26:26;102458.47;;;-0.45;85.35
70833;BME280;58452;59.418;17.962;2023-02-28T03:29:27;102454.81;;;-0.32;85.85
70833;BME280;58452;59.418;17.962;2023-02-28T03:31:50;102450.13;;;-0.10;85.46
70833;BME280;58452;59.418;17.962;2023-02-28T03:34:25;102448.16;;;0.04;83.81
70833;BME280;58452;59.418;17.962;2023-02-28T03:36:59;102458.09;;;0.15;82.92
70833;BME280;58452;59.418;17.962;2023-02-28T03:39:35;102456.25;;;0.21;82.26
70833;BME280;58452;59.418;17.962;2023-02-28T03:42:12;102460.19;;;-0.06;82.30
70833;BME280;58452;59.418;17.962;2023-02-28T03:44:43;102466.50;;;-0.23;82.64
70833;BME280;58452;59.418;17.962;2023-02-28T03:48:06;102461.03;;;-0.05;82.33
70833;BME280;58452;59.418;17.962;2023-02-28T03:50:08;102473.66;;;-0.01;81.84
70833;BME280;58452;59.418;17.962;2023-02-28T03:52:49;102470.25;;;-0.01;80.38
70833;BME280;58452;59.418;17.962;2023-02-28T03:55:16;102462.59;;;0.02;79.88
70833;BME280;58452;59.418;17.962;2023-02-28T04:00:32;102451.53;;;0.05;80.27
70833;BME280;58452;59.418;17.962;2023-02-28T04:02:59;102451.03;;;-0.13;80.98
70833;BME280;58452;59.418;17.962;2023-02-28T04:05:25;102448.66;;;-0.19;82.89
70833;BME280;58452;59.418;17.962;2023-02-28T04:07:51;102448.56;;;-0.16;82.86
70833;BME280;58452;59.418;17.962;2023-02-28T04:10:16;102446.97;;;-0.21;84.21
70833;BME280;58452;59.418;17.962;2023-02-28T04:12:42;102446.50;;;-0.40;85.42
70833;BME280;58452;59.418;17.962;2023-02-28T04:15:08;102444.09;;;-0.46;85.88
70833;BME280;58452;59.418;17.962;2023-02-28T04:17:35;102442.41;;;-0.45;85.55
70833;BME280;58452;59.418;17.962;2023-02-28T04:20:01;102432.22;;;-0.44;85.28
70833;BME280;58452;59.418;17.962;2023-02-28T04:22:26;102437.41;;;-0.48;86.07
70833;BME280;58452;59.418;17.962;2023-02-28T04:24:51;102438.19;;;-0.45;86.33
70833;BME280;58452;59.418;17.962;2023-02-28T04:27:20;102445.03;;;-0.50;85.99
70833;BME280;58452;59.418;17.962;2023-02-28T04:29:45;102436.56;;;-0.49;86.18
70833;BME280;58452;59.418;17.962;2023-02-28T04:32:11;102436.44;;;-0.43;86.30
70833;BME280;58452;59.418;17.962;2023-02-28T04:34:36;102433.19;;;-0.51;85.83
70833;BME280;58452;59.418;17.962;2023-02-28T04:37:02;102434.25;;;-0.61;86.49
70833;BME280;58452;59.418;17.962;2023-02-28T04:39:28;102437.75;;;-0.68;87.14
70833;BME280;58452;59.418;17.962;2023-02-28T04:41:54;102438.63;;;-0.69;86.54
70833;BME280;58452;59.418;17.962;2023-02-28T04:44:21;102440.25;;;-0.65;87.41
70833;BME280;58452;59.418;17.962;2023-02-28T04:46:47;102441.06;;;-0.63;87.16
70833;BME280;58452;59.418;17.962;2023-02-28T04:49:13;102441.84;;;-0.61;87.08
70833;BME280;58452;59.418;17.962;2023-02-28T04:51:39;102451.94;;;-0.58;86.35
70833;BME280;58452;59.418;17.962;2023-02-28T04:54:05;102453.81;;;-0.66;86.54
70833;BME280;58452;59.418;17.962;2023-02-28T04:56:31;102453.03;;;-0.70;86.85
70833;BME280;58452;59.418;17.962;2023-02-28T04:58:57;102457.97;;;-0.65;86.99
70833;BME280;58452;59.418;17.962;2023-02-28T05:01:24;102463.00;;;-0.62;86.86
70833;BME280;58452;59.418;17.962;2023-02-28T05:03:51;102461.34;;;-0.63;86.48
70833;BME280;58452;59.418;17.962;2023-02-28T05:06:16;102456.22;;;-0.62;85.69
70833;BME280;58452;59.418;17.962;2023-02-28T05:08:42;102457.13;;;-0.64;86.67
70833;BME280;58452;59.418;17.962;2023-02-28T05:11:17;102450.88;;;-0.46;85.64
70833;BME280;58452;59.418;17.962;2023-02-28T05:13:43;102455.88;;;-0.43;85.56
70833;BME280;58452;59.418;17.962;2023-02-28T05:16:09;102456.09;;;-0.54;85.63
70833;BME280;58452;59.418;17.962;2023-02-28T05:18:34;102457.69;;;-0.48;84.58
70833;BME280;58452;59.418;17.962;2023-02-28T05:21:00;102463.19;;;-0.71;85.29
70833;BME280;58452;59.418;17.962;2023-02-28T05:23:27;102468.06;;;-0.62;86.24
70833;BME280;58452;59.418;17.962;2023-02-28T05:25:53;102467.41;;;-0.73;85.80
70833;BME280;58452;59.418;17.962;2023-02-28T05:28:19;102456.38;;;-0.69;85.65
70833;BME280;58452;59.418;17.962;2023-02-28T05:30:44;102463.97;;;-0.69;85.29
70833;BME280;58452;59.418;17.962;2023-02-28T05:33:11;102463.09;;;-0.67;85.30
70833;BME280;58452;59.418;17.962;2023-02-28T05:35:40;102463.09;;;-0.67;84.52
70833;BME280;58452;59.418;17.962;2023-02-28T05:38:08;102465.50;;;-0.59;85.64
70833;BME280;58452;59.418;17.962;2023-02-28T05:40:33;102462.75;;;-0.48;84.84
70833;BME280;58452;59.418;17.962;2023-02-28T05:42:59;102462.47;;;-0.33;83.81
70833;BME280;58452;59.418;17.962;2023-02-28T05:45:25;102464.53;;;-0.54;82.33
70833;BME280;58452;59.418;17.962;2023-02-28T05:47:54;102468.81;;;-0.57;83.98
70833;BME280;58452;59.418;17.962;2023-02-28T05:50:19;102463.88;;;-0.63;84.04
70833;BME280;58452;59.418;17.962;2023-02-28T05:52:49;102477.41;;;-0.64;84.06
70833;BME280;58452;59.418;17.962;2023-02-28T05:55:15;102473.91;;;-0.57;84.78
70833;BME280;58452;59.418;17.962;2023-02-28T05:57:40;102468.75;;;-0.54;84.40
70833;BME280;58452;59.418;17.962;2023-02-28T06:00:10;102477.94;;;-0.47;84.84
70833;BME280;58452;59.418;17.962;2023-02-28T06:02:38;102478.69;;;-0.40;84.93
70833;BME280;58452;59.418;17.962;2023-02-28T06:05:05;102478.69;;;-0.42;83.14
70833;BME280;58452;59.418;17.962;2023-02-28T06:07:30;102482.00;;;-0.38;84.90
70833;BME280;58452;59.418;17.962;2023-02-28T06:09:56;102480.31;;;-0.38;84.11
70833;BME280;58452;59.418;17.962;2023-02-28T06:12:21;102482.03;;;-0.40;84.05
70833;BME280;58452;59.418;17.962;2023-02-28T06:14:47;102483.63;;;-0.36;84.95
70833;BME280;58452;59.418;17.962;2023-02-28T06:17:12;102483.53;;;-0.30;84.06
70833;BME280;58452;59.418;17.962;2023-02-28T06:19:38;102475.09;;;-0.32;83.96
70833;BME280;58452;59.418;17.962;2023-02-28T06:22:04;102483.41;;;-0.24;83.96
70833;BME280;58452;59.418;17.962;2023-02-28T06:24:29;102490.03;;;-0.17;84.05
70833;BME280;58452;59.418;17.962;2023-02-28T06:26:56;102484.25;;;-0.23;83.45
70833;BME280;58452;59.418;17.962;2023-02-28T06:29:24;102489.97;;;-0.14;82.96
70833;BME280;58452;59.418;17.962;2023-02-28T06:31:50;102496.66;;;-0.10;83.50
70833;BME280;58452;59.418;17.962;2023-02-28T06:34:15;102499.19;;;-0.08;83.33
70833;BME280;58452;59.418;17.962;2023-02-28T06:36:42;102498.19;;;-0.03;82.54
70833;BME280;58452;59.418;17.962;2023-02-28T06:39:08;102498.09;;;0.04;83.14
70833;BME280;58452;59.418;17.962;2023-02-28T06:41:34;102501.34;;;0.09;82.64
70833;BME280;58452;59.418;17.962;2023-02-28T06:44:04;102502.81;;;0.19;82.32
70833;BME280;58452;59.418;17.962;2023-02-28T06:46:31;102494.16;;;0.29;81.27
70833;BME280;58452;59.418;17.962;2023-02-28T06:48:56;102510.19;;;0.32;81.10
70833;BME280;58452;59.418;17.962;2023-02-28T06:51:22;102498.19;;;0.39;81.20
70833;BME280;58452;59.418;17.962;2023-02-28T06:53:49;102495.50;;;0.45;81.21
70833;BME280;58452;59.418;17.962;2023-02-28T06:56:16;102486.84;;;0.52;81.17
70833;BME280;58452;59.418;17.962;2023-02-28T06:58:42;102495.16;;;0.60;80.53
70833;BME280;58452;59.418;17.962;2023-02-28T07:01:08;102492.41;;;0.69;79.87
70833;BME280;58452;59.418;17.962;2023-02-28T07:03:35;102493.97;;;0.75;80.04
70833;BME280;58452;59.418;17.962;2023-02-28T07:06:01;102495.47;;;0.82;79.60
70833;BME280;58452;59.418;17.962;2023-02-28T07:08:27;102501.16;;;0.93;78.84
70833;BME280;58452;59.418;17.962;2023-02-28T07:10:54;102494.91;;;1.06;78.96
70833;BME280;58452;59.418;17.962;2023-02-28T07:13:20;102487.09;;;1.14;78.63
70833;BME280;58452;59.418;17.962;2023-02-28T07:15:53;102492.94;;;1.17;78.34
70833;BME280;58452;59.418;17.962;2023-02-28T07:18:19;102490.16;;;1.25;78.15
70833;BME280;58452;59.418;17.962;2023-02-28T07:20:44;102491.84;;;1.26;77.64
70833;BME280;58452;59.418;17.962;2023-02-28T07:23:10;102495.13;;;1.31;77.80
70833;BME280;58452;59.418;17.962;2023-02-28T07:25:35;102499.25;;;1.35;77.35
70833;BME280;58452;59.418;17.962;2023-02-28T07:28:00;102494.94;;;1.37;77.29
70833;BME280;58452;59.418;17.962;2023-02-28T07:30:26;102500.03;;;1.37;76.88
70833;BME280;58452;59.418;17.962;2023-02-28T07:32:51;102496.72;;;1.35;77.10
70833;BME280;58452;59.418;17.962;2023-02-28T07:35:17;102488.28;;;1.33;77.01
70833;BME280;58452;59.418;17.962;2023-02-28T07:37:42;102497.56;;;1.34;76.63
70833;BME280;58452;59.418;17.962;2023-02-28T07:40:10;102495.13;;;1.31;76.93
70833;BME280;58452;59.418;17.962;2023-02-28T07:42:40;102504.38;;;1.33;77.09
70833;BME280;58452;59.418;17.962;2023-02-28T07:45:07;102498.53;;;1.30;77.16
70833;BME280;58452;59.418;17.962;2023-02-28T07:47:33;102495.97;;;1.31;77.40
70833;BME280;58452;59.418;17.962;2023-02-28T07:49:59;102491.63;;;1.35;76.77
70833;BME280;58452;59.418;17.962;2023-02-28T07:52:24;102487.22;;;1.40;76.81
70833;BME280;58452;59.418;17.962;2023-02-28T07:54:50;102493.03;;;1.45;77.03
70833;BME280;58452;59.418;17.962;2023-02-28T07:57:17;102492.28;;;1.41;76.53
70833;BME280;58452;59.418;17.962;2023-02-28T07:59:42;102493.88;;;1.45;76.59
70833;BME280;58452;59.418;17.962;2023-02-28T08:02:18;102485.34;;;1.48;76.43
70833;BME280;58452;59.418;17.962;2023-02-28T08:04:44;102486.13;;;1.50;76.64
70833;BME280;58452;59.418;17.962;2023-02-28T08:07:09;102477.38;;;1.60;76.00
70833;BME280;58452;59.418;17.962;2023-02-28T08:09:41;102477.84;;;1.73;75.29
70833;BME280;58452;59.418;17.962;2023-02-28T08:12:07;102465.84;;;1.78;75.30
70833;BME280;58452;59.418;17.962;2023-02-28T08:14:34;102473.47;;;1.79;75.12
70833;BME280;58452;59.418;17.962;2023-02-28T08:16:59;102475.03;;;1.83;75.15
70833;BME280;58452;59.418;17.962;2023-02-28T08:19:25;102469.84;;;1.86;75.08
70833;BME280;58452;59.418;17.962;2023-02-28T08:21:50;102477.34;;;1.91;74.87
70833;BME280;58452;59.418;17.962;2023-02-28T08:24:15;102481.34;;;2.00;74.88
70833;BME280;58452;59.418;17.962;2023-02-28T08:26:41;102481.25;;;2.03;74.91
70833;BME280;58452;59.418;17.962;2023-02-28T08:29:06;102476.81;;;2.09;74.41
70833;BME280;58452;59.418;17.962;2023-02-28T08:31:32;102480.78;;;2.19;74.04
70833;BME280;58452;59.418;17.962;2023-02-28T08:33:57;102477.19;;;2.25;73.86
70833;BME280;58452;59.418;17.962;2023-02-28T08:36:25;102483.09;;;2.27;73.58
70833;BME280;58452;59.418;17.962;2023-02-28T08:38:51;102477.19;;;2.25;73.72
70833;BME280;58452;59.418;17.962;2023-02-28T08:41:17;102481.38;;;2.27;73.64
70833;BME280;58452;59.418;17.962;2023-02-28T08:43:42;102471.28;;;2.24;73.47
70833;BME280;58452;59.418;17.962;2023-02-28T08:46:11;102468.78;;;2.23;73.77
70833;BME280;58452;59.418;17.962;2023-02-28T08:48:37;102472.25;;;2.20;73.12
70833;BME280;58452;59.418;17.962;2023-02-28T08:51:08;102470.47;;;2.24;73.61
70833;BME280;58452;59.418;17.962;2023-02-28T08:53:35;102473.78;;;2.26;73.47
70833;BME280;58452;59.418;17.962;2023-02-28T08:56:06;102466.03;;;2.29;73.34
70833;BME280;58452;59.418;17.962;2023-02-28T08:58:33;102465.16;;;2.30;73.48
70833;BME280;58452;59.418;17.962;2023-02-28T09:01:00;102464.88;;;2.39;73.48
70833;BME280;58452;59.418;17.962;2023-02-28T09:03:26;102461.34;;;2.43;72.72
70833;BME280;58452;59.418;17.962;2023-02-28T09:05:57;102462.84;;;2.50;73.19
70833;BME280;58452;59.418;17.962;2023-02-28T09:08:26;102453.34;;;2.55;72.80
70833;BME280;58452;59.418;17.962;2023-02-28T09:10:52;102446.31;;;2.62;72.66
70833;BME280;58452;59.418;17.962;2023-02-28T09:13:20;102450.47;;;2.64;72.02
70833;BME280;58452;59.418;17.962;2023-02-28T09:15:46;102448.63;;;2.69;72.56
70833;BME280;58452;59.418;17.962;2023-02-28T09:18:12;102453.59;;;2.74;72.02
70833;BME280;58452;59.418;17.962;2023-02-28T09:20:39;102441.47;;;2.80;71.74
70833;BME280;58452;59.418;17.962;2023-02-28T09:23:06;102438.16;;;2.78;71.19
70833;BME280;58452;59.418;17.962;2023-02-28T09:25:32;102429.59;;;2.79;71.85
70833;BME280;58452;59.418;17.962;2023-02-28T09:27:58;102427.63;;;2.87;72.02
70833;BME280;58452;59.418;17.962;2023-02-28T09:30:23;102430.66;;;2.99;70.75
70833;BME280;58452;59.418;17.962;2023-02-28T09:32:49;102420.06;;;3.11;71.13
70833;BME280;58452;59.418;17.962;2023-02-28T09:35:18;102420.63;;;3.19;70.62
70833;BME280;58452;59.418;17.962;2023-02-28T09:37:44;102425.03;;;3.14;70.35
70833;BME280;58452;59.418;17.962;2023-02-28T09:40:10;102419.63;;;3.23;70.71
70833;BME280;58452;59.418;17.962;2023-02-28T09:42:37;102421.81;;;3.33;70.07
70833;BME280;58452;59.418;17.962;2023-02-28T09:45:17;102408.97;;;3.35;70.23
70833;BME280;58452;59.418;17.962;2023-02-28T09:47:46;102418.88;;;3.44;69.86
70833;BME280;58452;59.418;17.962;2023-02-28T09:52:51;102414.88;;;3.60;69.64
70833;BME280;58452;59.418;17.962;2023-02-28T09:55:22;102426.75;;;3.61;68.18
70833;BME280;58452;59.418;17.962;2023-02-28T09:57:51;102419.13;;;3.60;68.53
70833;BME280;58452;59.418;17.962;2023-02-28T10:00:39;102420.69;;;3.64;68.74
70833;BME280;58452;59.418;17.962;2023-02-28T10:03:38;102416.22;;;3.70;68.54
70833;BME280;58452;59.418;17.962;2023-02-28T10:06:17;102423.69;;;3.75;68.66
70833;BME280;58452;59.418;17.962;2023-02-28T10:08:50;102414.66;;;3.66;69.14
70833;BME280;58452;59.418;17.962;2023-02-28T10:11:22;102428.19;;;3.68;68.30
70833;BME280;58452;59.418;17.962;2023-02-28T10:14:01;102413.47;;;3.75;68.21
70833;BME280;58452;59.418;17.962;2023-02-28T10:16:32;102430.94;;;3.85;68.01
70833;BME280;58452;59.418;17.962;2023-02-28T10:19:04;102432.41;;;3.92;68.09
70833;BME280;58452;59.418;17.962;2023-02-28T10:21:46;102438.13;;;3.99;68.11
70833;BME280;58452;59.418;17.962;2023-02-28T10:24:40;102433.06;;;3.98;68.10
70833;BME280;58452;59.418;17.962;2023-02-28T10:27:23;102434.56;;;4.03;68.13
70833;BME280;58452;59.418;17.962;2023-02-28T10:29:51;102440.91;;;4.15;67.15
70833;BME280;58452;59.418;17.962;2023-02-28T10:32:22;102438.25;;;4.18;67.11
70833;BME280;58452;59.418;17.962;2023-02-28T10:37:37;102434.78;;;4.19;67.89
70833;BME280;58452;59.418;17.962;2023-02-28T10:40:05;102442.22;;;4.25;67.15
70833;BME280;58452;59.418;17.962;2023-02-28T10:42:32;102443.66;;;4.32;66.96
70833;BME280;58452;59.418;17.962;2023-02-28T10:47:53;102431.50;;;4.37;66.58
70833;BME280;58452;59.418;17.962;2023-02-28T10:50:42;102430.28;;;4.47;67.14
70833;BME280;58452;59.418;17.962;2023-02-28T10:59:03;102425.19;;;4.67;66.62
70833;BME280;58452;59.418;17.962;2023-02-28T11:01:39;102432.34;;;4.79;65.93
70833;BME280;58452;59.418;17.962;2023-02-28T11:07:01;102445.66;;;4.87;65.53
70833;BME280;58452;59.418;17.962;2023-02-28T11:09:34;102443.69;;;4.94;65.11
70833;BME280;58452;59.418;17.962;2023-02-28T11:12:05;102434.66;;;5.06;65.06
70833;BME280;58452;59.418;17.962;2023-02-28T11:14:40;102437.09;;;5.09;65.10
70833;BME280;58452;59.418;17.962;2023-02-28T11:17:28;102434.03;;;5.21;64.40
70833;BME280;58452;59.418;17.962;2023-02-28T11:20:05;102430.50;;;5.23;64.12
70833;BME280;58452;59.418;17.962;2023-02-28T11:22:38;102433.88;;;5.24;63.39
70833;BME280;58452;59.418;17.962;2023-02-28T11:25:30;102423.00;;;5.39;64.90
70833;BME280;58452;59.418;17.962;2023-02-28T11:27:56;102432.81;;;5.48;62.93
70833;BME280;58452;59.418;17.962;2023-02-28T11:30:29;102427.16;;;5.60;62.81
70833;BME280;58452;59.418;17.962;2023-02-28T11:32:55;102431.72;;;5.72;62.53
70833;BME280;58452;59.418;17.962;2023-02-28T11:35:26;102427.88;;;5.82;62.25
70833;BME280;58452;59.418;17.962;2023-02-28T11:37:52;102413.81;;;5.91;62.09
70833;BME280;58452;59.418;17.962;2023-02-28T11:40:24;102418.19;;;5.89;62.25
70833;BME280;58452;59.418;17.962;2023-02-28T11:43:06;102418.47;;;6.02;61.93
70833;BME280;58452;59.418;17.962;2023-02-28T11:48:28;102408.13;;;6.03;61.86
70833;BME280;58452;59.418;17.962;2023-02-28T11:51:20;102400.59;;;6.00;61.64
70833;BME280;58452;59.418;17.962;2023-02-28T11:54:23;102403.13;;;6.19;61.53
70833;BME280;58452;59.418;17.962;2023-02-28T11:56:57;102395.91;;;6.27;61.25
70833;BME280;58452;59.418;17.962;2023-02-28T12:08:07;102394.25;;;6.43;60.79
70833;BME280;58452;59.418;17.962;2023-02-28T12:16:41;102379.81;;;6.92;59.07
70833;BME280;58452;59.418;17.962;2023-02-28T12:27:12;102378.88;;;7.43;58.47
70833;BME280;58452;59.418;17.962;2023-02-28T12:29:54;102376.72;;;7.67;57.78
70833;BME280;58452;59.418;17.962;2023-02-28T12:32:27;102369.91;;;7.81;57.38
70833;BME280;58452;59.418;17.962;2023-02-28T12:40:15;102369.03;;;8.28;56.00
70833;BME280;58452;59.418;17.962;2023-02-28T12:42:46;102374.00;;;8.47;55.06
70833;BME280;58452;59.418;17.962;2023-02-28T12:45:20;102364.63;;;8.60;54.42
70833;BME280;58452;59.418;17.962;2023-02-28T12:47:49;102368.91;;;8.45;54.47
70833;BME280;58452;59.418;17.962;2023-02-28T12:50:16;102361.75;;;8.36;55.04
70833;BME280;58452;59.418;17.962;2023-02-28T12:55:35;102368.59;;;7.90;56.67
70833;BME280;58452;59.418;17.962;2023-02-28T13:14:02;102364.28;;;7.75;56.48
70833;BME280;58452;59.418;17.962;2023-02-28T13:16:28;102369.91;;;7.97;55.69
70833;BME280;58452;59.418;17.962;2023-02-28T13:19:17;102368.28;;;8.26;55.21
70833;BME280;58452;59.418;17.962;2023-02-28T13:21:44;102371.38;;;8.17;55.48
70833;BME280;58452;59.418;17.962;2023-02-28T13:24:11;102374.34;;;8.25;55.22
70833;BME280;58452;59.418;17.962;2023-02-28T13:29:30;102371.25;;;7.89;56.62
70833;BME280;58452;59.418;17.962;2023-02-28T13:34:38;102363.19;;;7.63;57.03
70833;BME280;58452;59.418;17.962;2023-02-28T13:47:54;102368.41;;;7.46;57.35
70833;BME280;58452;59.418;17.962;2023-02-28T13:50:30;102364.84;;;7.33;57.55
70833;BME280;58452;59.418;17.962;2023-02-28T13:53:22;102366.09;;;7.26;58.17
70833;BME280;58452;59.418;17.962;2023-02-28T13:56:07;102360.59;;;7.16;58.22
70833;BME280;58452;59.418;17.962;2023-02-28T13:58:41;102366.66;;;7.15;58.38
70833;BME280;58452;59.418;17.962;2023-02-28T14:06:31;102373.75;;;7.10;58.69
70833;BME280;58452;59.418;17.962;2023-02-28T14:09:01;102366.59;;;6.82;59.35
70833;BME280;58452;59.418;17.962;2023-02-28T14:11:46;102366.81;;;6.95;59.27
70833;BME280;58452;59.418;17.962;2023-02-28T14:17:13;102385.19;;;6.87;59.91
70833;BME280;58452;59.418;17.962;2023-02-28T14:19:39;102384.28;;;6.88;60.44
70833;BME280;58452;59.418;17.962;2023-02-28T14:36:20;102373.22;;;6.71;59.85
70833;BME280;58452;59.418;17.962;2023-02-28T14:39:13;102375.69;;;6.72;60.24
70833;BME280;58452;59.418;17.962;2023-02-28T14:41:41;102370.50;;;6.74;60.24
70833;BME280;58452;59.418;17.962;2023-02-28T14:46:42;102364.22;;;6.62;60.27
70833;BME280;58452;59.418;17.962;2023-02-28T14:49:24;102361.59;;;6.64;60.47
70833;BME280;58452;59.418;17.962;2023-02-28T14:52:03;102355.91;;;6.57;60.20
70833;BME280;58452;59.418;17.962;2023-02-28T14:54:30;102358.63;;;6.54;60.94
70833;BME280;58452;59.418;17.962;2023-02-28T14:56:56;102350.50;;;6.46;60.93
70833;BME280;58452;59.418;17.962;2023-02-28T15:01:50;102335.78;;;6.32;61.26
70833;BME280;58452;59.418;17.962;2023-02-28T15:04:26;102338.72;;;6.25;61.23
70833;BME280;58452;59.418;17.962;2023-02-28T15:07:13;102356.97;;;6.19;61.82
70833;BME280;58452;59.418;17.962;2023-02-28T15:09:39;102362.78;;;6.22;61.68
70833;BME280;58452;59.418;17.962;2023-02-28T15:12:05;102356.59;;;6.26;61.69
70833;BME280;58452;59.418;17.962;2023-02-28T15:14:31;102364.38;;;6.25;61.73
70833;BME280;58452;59.418;17.962;2023-02-28T15:17:02;102358.03;;;6.15;62.18
70833;BME280;58452;59.418;17.962;2023-02-28T15:19:39;102356.16;;;6.18;62.28